Time;durP1;ratioP1;P1;durP2;ratioP2;P2;SDS_P1;SDS_P2;PMS_P1;PMS_P2;Temp;Humidity;BMP_temperature;BMP_pressure;BME280_temperature;BME280_humidity;BME280_pressure;Samples;Min_cycle;Max_cycle;Signal;HPM_P1;HPM_P2
2021/12/26 00:00:42;;;;;;;11.50;4.18;;;-5.30;99.90;;;;;;5093195;28;20040;-69
2021/12/26 00:03:08;;;;;;;6.07;3.22;;;;;;;;;;5093230;28;20384;-69
2021/12/26 00:05:35;;;;;;;7.68;4.10;;;;;;;;;;5093469;28;20050;-69
2021/12/26 00:08:01;;;;;;;7.78;3.60;;;;;;;;;;5076261;28;20109;-69
2021/12/26 00:10:28;;;;;;;7.30;3.08;;;;;;;;;;5093421;28;20082;-67
2021/12/26 00:12:55;;;;;;;7.22;3.67;;;;;;;;;;5093095;28;20440;-68
2021/12/26 00:15:21;;;;;;;8.65;3.60;;;;;;;;;;5074043;28;20036;-69
2021/12/26 00:17:48;;;;;;;6.60;3.13;;;;;;;;;;5073202;28;20468;-69
2021/12/26 00:20:14;;;;;;;8.95;4.07;;;;;;;;;;5073020;28;20048;-69
2021/12/26 00:22:40;;;;;;;6.78;3.20;;;;;;;;;;5072741;28;20036;-69
2021/12/26 00:25:07;;;;;;;7.13;3.53;;;;;;;;;;5073002;28;20102;-69
2021/12/26 00:27:34;;;;;;;5.07;2.95;;;;;;;;;;5077583;28;20032;-68
2021/12/26 00:30:00;;;;;;;6.35;3.33;;;;;;;;;;5091423;28;20059;-68
2021/12/26 00:32:26;;;;;;;7.45;2.65;;;;;;;;;;5093096;28;20040;-69
2021/12/26 00:34:52;;;;;;;8.20;2.95;;;;;;;;;;5076510;28;20397;-69
2021/12/26 00:37:19;;;;;;;6.93;3.22;;;;;;;;;;5075335;28;20040;-69
2021/12/26 00:39:45;;;;;;;5.60;2.55;;;;;;;;;;5092869;28;20044;-69
2021/12/26 00:42:11;;;;;;;7.18;3.28;;;;;;;;;;5093066;28;20044;-69
2021/12/26 00:44:40;;;;;;;5.68;2.70;;;;;;;;;;5091480;28;20036;-69
2021/12/26 00:47:07;;;;;;;7.03;2.63;;;;;;;;;;5075930;28;20051;-69
2021/12/26 00:49:34;;;;;;;7.07;2.97;;;;;;;;;;5092572;28;20040;-69
2021/12/26 00:52:00;;;;;;;7.05;2.50;;;;;;;;;;5092147;28;20048;-69
2021/12/26 00:54:26;;;;;;;7.53;3.00;;;;;;;;;;5085695;28;20452;-69
2021/12/26 00:56:52;;;;;;;8.13;2.75;;;;;;;;;;5105751;28;20045;-69
2021/12/26 00:59:17;;;;;;;8.25;2.58;;;-4.80;99.90;;;;;;5105911;27;20041;-69
2021/12/26 01:01:43;;;;;;;6.05;2.50;;;-4.90;99.90;;;;;;5072276;28;20401;-69
2021/12/26 01:04:11;;;;;;;7.60;3.20;;;-4.90;99.90;;;;;;5071516;28;20032;-69
2021/12/26 01:06:37;;;;;;;5.72;2.42;;;;;;;;;;5072501;28;20072;-69
2021/12/26 01:09:08;;;;;;;6.72;2.90;;;-4.90;99.90;;;;;;5088618;28;20039;-69
2021/12/26 01:11:46;;;;;;;7.82;2.63;;;-4.60;99.90;;;;;;5091111;28;20553;-68
2021/12/26 01:14:14;;;;;;;5.60;2.45;;;-5.00;99.90;;;;;;5092318;28;20510;-69
2021/12/26 01:16:40;;;;;;;6.72;2.72;;;-4.00;99.90;;;;;;5092582;28;20119;-67
2021/12/26 01:19:14;;;;;;;6.47;2.75;;;-4.90;99.90;;;;;;5074582;28;20059;-68
2021/12/26 01:21:42;;;;;;;10.18;2.65;;;-5.10;99.90;;;;;;5092451;28;20044;-69
2021/12/26 01:24:12;;;;;;;6.75;2.58;;;-5.00;99.90;;;;;;5091806;28;20036;-69
2021/12/26 01:26:38;;;;;;;5.72;3.00;;;-5.00;99.90;;;;;;5083557;28;20382;-69
2021/12/26 01:29:05;;;;;;;6.93;2.50;;;-5.00;99.90;;;;;;5109099;28;20405;-69
2021/12/26 01:31:30;;;;;;;8.85;2.83;;;-5.10;99.90;;;;;;5074684;28;20129;-69
2021/12/26 01:34:01;;;;;;;6.68;3.40;;;-5.20;99.90;;;;;;5074415;28;20044;-68
2021/12/26 01:36:28;;;;;;;7.22;2.50;;;-5.50;99.90;;;;;;5079872;28;20043;-69
2021/12/26 01:38:57;;;;;;;5.80;2.10;;;-5.20;99.90;;;;;;5075387;28;20036;-68
2021/12/26 01:41:23;;;;;;;5.40;2.22;;;-5.30;99.90;;;;;;5091332;28;20036;-69
2021/12/26 01:43:52;;;;;;;5.78;2.88;;;-5.30;99.90;;;;;;5092159;28;20426;-69
2021/12/26 01:46:18;;;;;;;5.07;2.13;;;-5.30;99.90;;;;;;5057577;28;20036;-69
2021/12/26 01:48:44;;;;;;;5.43;2.22;;;-5.30;99.90;;;;;;5108909;28;20044;-68
2021/12/26 01:51:10;;;;;;;5.45;2.22;;;-5.30;99.90;;;;;;5108426;28;20078;-68
2021/12/26 01:53:38;;;;;;;9.00;2.53;;;-5.20;99.90;;;;;;5122081;27;20472;-68
2021/12/26 01:56:08;;;;;;;8.60;2.70;;;-5.20;99.90;;;;;;5091472;28;20045;-68
2021/12/26 01:58:36;;;;;;;4.45;1.90;;;-5.30;99.90;;;;;;5108488;28;20097;-69
2021/12/26 02:01:08;;;;;;;5.13;2.15;;;-5.20;99.90;;;;;;5073763;28;20040;-69
2021/12/26 02:03:35;;;;;;;5.47;2.17;;;-5.20;99.90;;;;;;5108696;28;20439;-68
2021/12/26 02:06:03;;;;;;;7.18;2.75;;;-5.00;99.90;;;;;;5079917;28;20035;-68
2021/12/26 02:08:28;;;;;;;5.40;2.17;;;-5.20;99.90;;;;;;5093768;28;20132;-68
2021/12/26 02:10:54;;;;;;;6.15;2.33;;;-5.20;99.90;;;;;;5078523;28;20140;-69
2021/12/26 02:13:20;;;;;;;5.30;2.35;;;;;;;;;;5081139;28;20046;-68
2021/12/26 02:15:49;;;;;;;5.70;2.25;;;-5.20;99.90;;;;;;5094045;28;20097;-68
2021/12/26 02:18:15;;;;;;;5.85;1.63;;;-5.20;99.90;;;;;;5094429;28;20484;-68
2021/12/26 02:23:15;;;;;;;4.13;1.70;;;-5.00;99.90;;;;;;5106908;28;20052;-68
2021/12/26 02:28:09;;;;;;;4.88;1.92;;;-4.50;99.90;;;;;;5094126;28;20049;-68
2021/12/26 02:30:35;;;;;;;5.00;1.95;;;-5.20;99.90;;;;;;5093348;28;20104;-68
2021/12/26 02:33:04;;;;;;;6.20;2.38;;;-5.00;99.90;;;;;;5094623;28;20134;-68
2021/12/26 02:35:30;;;;;;;6.50;2.22;;;-3.80;99.90;;;;;;5075615;28;20055;-68
2021/12/26 02:37:56;;;;;;;8.13;2.53;;;-5.20;99.90;;;;;;5094385;28;20043;-68
2021/12/26 02:40:22;;;;;;;5.38;2.25;;;-5.40;99.90;;;;;;5093376;28;20514;-68
2021/12/26 02:42:49;;;;;;;5.20;2.60;;;-5.30;99.90;;;;;;5093459;28;20061;-68
2021/12/26 02:45:15;;;;;;;5.72;2.47;;;;;;;;;;5128422;28;20044;-68
2021/12/26 02:47:43;;;;;;;6.85;3.25;;;-5.20;99.90;;;;;;5094419;28;20474;-68
2021/12/26 02:50:15;;;;;;;7.53;2.40;;;-5.40;99.90;;;;;;5127640;28;20044;-68
2021/12/26 02:52:41;;;;;;;8.18;1.95;;;-5.30;99.90;;;;;;5094617;28;20069;-68
2021/12/26 02:55:08;;;;;;;5.60;2.38;;;-5.30;99.90;;;;;;5091606;28;20391;-68
2021/12/26 02:57:34;;;;;;;4.72;2.20;;;-5.30;99.90;;;;;;5076583;28;20138;-68
2021/12/26 03:00:08;;;;;;;5.63;2.20;;;-5.30;99.90;;;;;;5094075;28;20043;-68
2021/12/26 03:02:33;;;;;;;7.72;2.17;;;-5.30;99.90;;;;;;5076700;28;20067;-68
2021/12/26 03:05:00;;;;;;;5.35;2.40;;;;;;;;;;5093151;28;20071;-68
2021/12/26 03:07:25;;;;;;;4.78;2.08;;;-5.20;99.90;;;;;;5093054;28;20035;-68
2021/12/26 03:09:58;;;;;;;4.95;2.20;;;-5.30;99.90;;;;;;5076935;28;20048;-68
2021/12/26 03:12:25;;;;;;;5.63;2.72;;;-5.30;99.90;;;;;;5093246;28;20376;-68
2021/12/26 03:14:50;;;;;;;6.25;2.47;;;-5.20;99.90;;;;;;5094028;28;20047;-68
2021/12/26 03:17:16;;;;;;;5.07;2.22;;;-5.20;99.90;;;;;;5077211;28;20411;-68
2021/12/26 03:19:41;;;;;;;4.95;2.58;;;-5.30;99.90;;;;;;5076117;28;20119;-68
2021/12/26 03:22:07;;;;;;;5.63;2.55;;;-5.30;99.90;;;;;;5093775;28;20036;-68
2021/12/26 03:24:34;;;;;;;3.80;1.98;;;-5.60;99.90;;;;;;5078421;28;20365;-68
2021/12/26 03:27:04;;;;;;;6.47;2.10;;;-5.30;99.90;;;;;;5096970;28;20040;-69
2021/12/26 03:29:31;;;;;;;4.72;2.00;;;-5.50;99.90;;;;;;5077440;28;20063;-68
2021/12/26 03:31:56;;;;;;;5.93;2.08;;;-5.40;99.90;;;;;;5076550;28;20852;-68
2021/12/26 03:34:22;;;;;;;5.78;2.55;;;-5.40;99.90;;;;;;5077092;28;20065;-68
2021/12/26 03:36:52;;;;;;;6.35;3.42;;;;;;;;;;5114414;28;20050;-68
2021/12/26 03:39:18;;;;;;;8.75;2.83;;;-5.40;99.90;;;;;;5096911;28;20070;-68
2021/12/26 03:41:45;;;;;;;4.85;2.38;;;-5.40;99.90;;;;;;5096941;28;20051;-68
2021/12/26 03:44:12;;;;;;;5.88;2.40;;;-5.40;99.90;;;;;;5097961;28;20100;-68
2021/12/26 03:46:38;;;;;;;4.82;2.20;;;-5.40;99.90;;;;;;5080410;28;20500;-68
2021/12/26 03:49:05;;;;;;;5.13;2.00;;;;;;;;;;5097091;28;20047;-68
2021/12/26 03:51:33;;;;;;;5.47;2.60;;;-5.50;99.90;;;;;;5079902;28;20043;-68
2021/12/26 03:53:59;;;;;;;5.65;2.38;;;-5.40;99.90;;;;;;5096752;28;20408;-68
2021/12/26 03:56:25;;;;;;;6.30;2.35;;;;;;;;;;5079430;28;20044;-68
2021/12/26 03:58:51;;;;;;;4.80;2.20;;;-4.70;99.90;;;;;;5097120;28;20180;-68
2021/12/26 04:01:17;;;;;;;7.47;3.00;;;-5.50;99.90;;;;;;5079661;28;20085;-68
2021/12/26 04:03:43;;;;;;;6.15;3.30;;;-5.50;99.90;;;;;;5097304;28;20048;-68
2021/12/26 04:06:08;;;;;;;5.85;2.97;;;-5.50;99.90;;;;;;5096698;28;20042;-68
2021/12/26 04:08:34;;;;;;;5.38;2.70;;;-5.30;99.90;;;;;;5096434;28;20047;-68
2021/12/26 04:11:00;;;;;;;7.70;3.30;;;-5.40;99.90;;;;;;5079374;28;20051;-68
2021/12/26 04:13:26;;;;;;;29.88;14.30;;;;;;;;;;5096689;28;20051;-68
2021/12/26 04:15:52;;;;;;;58.20;25.50;;;-5.50;99.90;;;;;;5096249;28;20043;-68
2021/12/26 04:18:18;;;;;;;142.40;50.08;;;-5.70;99.90;;;;;;5079471;28;20039;-68
2021/12/26 04:20:44;;;;;;;149.13;55.88;;;-5.60;99.90;;;;;;5096626;28;20044;-68
2021/12/26 04:23:11;;;;;;;167.75;66.65;;;-5.60;99.90;;;;;;5096197;28;20046;-68
2021/12/26 04:25:37;;;;;;;46.05;20.50;;;;;;;;;;5087034;28;20043;-68
2021/12/26 04:28:03;;;;;;;111.70;41.83;;;-5.50;99.90;;;;;;5075570;28;20480;-68
2021/12/26 04:30:29;;;;;;;67.43;27.35;;;-5.60;99.90;;;;;;5092842;28;20052;-68
2021/12/26 04:32:55;;;;;;;47.38;18.27;;;-5.40;99.90;;;;;;5078217;28;20502;-68
2021/12/26 04:35:21;;;;;;;41.70;20.15;;;-5.60;99.90;;;;;;5078036;28;20412;-68
2021/12/26 04:37:47;;;;;;;79.45;32.10;;;-4.70;99.90;;;;;;5079606;28;20048;-68
2021/12/26 04:40:15;;;;;;;67.28;30.20;;;-5.50;99.90;;;;;;5095624;28;20094;-68
2021/12/26 04:42:44;;;;;;;42.40;19.15;;;-5.70;99.90;;;;;;5096128;28;20051;-68
2021/12/26 04:45:10;;;;;;;27.85;14.13;;;-5.30;99.90;;;;;;5096109;28;20058;-68
2021/12/26 04:47:37;;;;;;;59.22;25.35;;;-5.30;99.90;;;;;;5095923;28;20043;-68
2021/12/26 04:50:07;;;;;;;25.38;13.38;;;-5.40;99.90;;;;;;5094286;28;20043;-68
2021/12/26 04:52:33;;;;;;;24.17;12.13;;;-5.50;99.90;;;;;;5096156;28;20055;-68
2021/12/26 04:55:01;;;;;;;35.78;16.20;;;-5.70;99.90;;;;;;5078783;28;20035;-68
2021/12/26 04:57:27;;;;;;;30.55;14.60;;;-5.60;99.90;;;;;;5095741;28;20112;-68
2021/12/26 04:59:53;;;;;;;24.85;15.98;;;;;;;;;;5095149;28;20062;-68
2021/12/26 05:02:19;;;;;;;9.23;5.00;;;;;;;;;;5091159;28;20423;-68
2021/12/26 05:04:45;;;;;;;11.27;7.13;;;-5.50;99.90;;;;;;5095079;28;20070;-68
2021/12/26 05:07:11;;;;;;;7.47;4.03;;;-5.50;99.90;;;;;;5096130;28;20109;-69
2021/12/26 05:09:36;;;;;;;16.73;9.98;;;-5.40;99.90;;;;;;5094392;28;20039;-69
2021/12/26 05:12:02;;;;;;;27.42;12.75;;;-5.60;99.90;;;;;;5092073;28;20113;-68
2021/12/26 05:14:28;;;;;;;25.48;13.90;;;-5.50;99.90;;;;;;5083271;28;20488;-68
2021/12/26 05:16:53;;;;;;;8.57;5.15;;;-5.70;99.90;;;;;;5095305;28;20040;-68
2021/12/26 05:19:19;;;;;;;12.30;7.47;;;-5.00;99.90;;;;;;5095269;28;20479;-68
2021/12/26 05:21:45;;;;;;;7.55;3.60;;;;;;;;;;5095950;28;20047;-68
2021/12/26 05:24:11;;;;;;;10.68;5.28;;;;;;;;;;5078131;28;20074;-68
2021/12/26 05:26:37;;;;;;;6.50;3.85;;;;;;;;;;5095518;28;20396;-69
2021/12/26 05:29:03;;;;;;;6.10;2.83;;;-5.70;99.90;;;;;;5094787;28;20471;-69
2021/12/26 05:31:29;;;;;;;12.57;6.47;;;-5.70;99.90;;;;;;5094950;28;20442;-69
2021/12/26 05:33:54;;;;;;;7.78;4.10;;;-5.70;99.90;;;;;;5095706;28;20048;-68
2021/12/26 05:36:20;;;;;;;10.07;5.53;;;-5.80;99.90;;;;;;5094967;28;20047;-68
2021/12/26 05:38:46;;;;;;;6.22;3.90;;;-5.70;99.90;;;;;;5094494;28;20077;-68
2021/12/26 05:41:11;;;;;;;7.40;3.92;;;-5.70;99.90;;;;;;5094881;28;20093;-69
2021/12/26 05:43:37;;;;;;;6.95;3.85;;;-5.70;99.90;;;;;;5095771;28;20042;-68
2021/12/26 05:46:03;;;;;;;11.95;5.53;;;-5.50;99.90;;;;;;5077402;28;20048;-69
2021/12/26 05:48:29;;;;;;;9.60;4.60;;;-5.60;99.90;;;;;;5112096;28;20040;-68
2021/12/26 05:50:55;;;;;;;6.72;2.70;;;-5.80;99.90;;;;;;5077933;28;20039;-68
2021/12/26 05:53:20;;;;;;;5.93;3.08;;;-5.50;99.90;;;;;;5090616;28;20051;-68
2021/12/26 05:55:46;;;;;;;5.55;2.70;;;-5.60;99.90;;;;;;5075066;28;20393;-69
2021/12/26 05:58:14;;;;;;;4.50;2.25;;;-5.70;99.90;;;;;;5074579;28;20412;-68
2021/12/26 06:00:41;;;;;;;5.32;2.53;;;;;;;;;;5074222;28;20039;-69
2021/12/26 06:03:06;;;;;;;7.50;2.80;;;-5.50;99.90;;;;;;5076265;28;20051;-68
2021/12/26 06:05:32;;;;;;;7.88;3.20;;;;;;;;;;5057324;28;20040;-68
2021/12/26 06:07:58;;;;;;;8.55;4.07;;;-5.60;99.90;;;;;;5073979;28;20043;-68
2021/12/26 06:10:24;;;;;;;10.45;2.92;;;-5.90;99.90;;;;;;5091250;28;20073;-68
2021/12/26 06:12:50;;;;;;;6.38;3.25;;;;;;;;;;5099683;28;20071;-68
2021/12/26 06:15:15;;;;;;;5.47;2.78;;;-5.50;99.90;;;;;;5076749;28;20039;-69
2021/12/26 06:17:41;;;;;;;4.80;1.92;;;-5.70;99.90;;;;;;5094885;28;20039;-69
2021/12/26 06:20:14;;;;;;;6.63;3.95;;;-5.70;99.90;;;;;;5094489;28;20043;-69
2021/12/26 06:22:41;;;;;;;5.22;2.55;;;-5.80;99.90;;;;;;5076887;28;20213;-69
2021/12/26 06:25:08;;;;;;;5.40;2.30;;;-5.80;99.90;;;;;;5094413;28;20061;-69
2021/12/26 06:27:36;;;;;;;5.57;2.40;;;-5.80;99.90;;;;;;5093425;28;20365;-69
2021/12/26 06:30:06;;;;;;;5.40;2.00;;;-5.70;99.90;;;;;;5094302;28;20060;-69
2021/12/26 06:32:32;;;;;;;7.05;2.75;;;-6.10;99.90;;;;;;5094728;28;20377;-69
2021/12/26 06:35:00;;;;;;;51.10;24.23;;;;;;;;;;5093847;28;20040;-69
2021/12/26 06:37:27;;;;;;;14.02;7.63;;;;;;;;;;5093866;28;20059;-69
2021/12/26 06:39:53;;;;;;;14.30;8.02;;;;;;;;;;5077077;28;20051;-68
2021/12/26 06:42:18;;;;;;;15.75;8.07;;;-5.90;99.90;;;;;;5076469;28;20092;-69
2021/12/26 06:44:44;;;;;;;15.48;9.07;;;-5.50;99.90;;;;;;5094439;28;20035;-69
2021/12/26 06:47:10;;;;;;;13.15;7.25;;;-5.80;99.90;;;;;;5077508;28;20036;-68
2021/12/26 06:49:35;;;;;;;9.45;4.13;;;-5.50;99.90;;;;;;5093773;28;20146;-67
2021/12/26 06:52:01;;;;;;;13.52;7.25;;;-5.70;99.90;;;;;;5092575;28;20388;-67
2021/12/26 06:54:26;;;;;;;21.95;10.70;;;-5.60;99.90;;;;;;5073670;28;20392;-69
2021/12/26 06:56:52;;;;;;;25.20;10.93;;;-5.60;99.90;;;;;;5106934;28;20048;-67
2021/12/26 06:59:18;;;;;;;14.45;7.60;;;-6.00;99.90;;;;;;5109277;28;20036;-68
2021/12/26 07:01:43;;;;;;;24.10;14.25;;;-5.90;99.90;;;;;;5078133;28;20036;-67
2021/12/26 07:04:09;;;;;;;10.50;5.75;;;-5.80;99.90;;;;;;5131301;27;20047;-68
2021/12/26 07:06:35;;;;;;;13.80;6.60;;;-5.80;99.90;;;;;;5081547;28;20039;-69
2021/12/26 07:09:00;;;;;;;8.10;5.07;;;-5.90;99.90;;;;;;5129732;27;20092;-70
2021/12/26 07:11:26;;;;;;;6.57;4.05;;;;;;;;;;5080673;28;20096;-67
2021/12/26 07:13:52;;;;;;;18.05;8.73;;;-5.80;99.90;;;;;;5097651;28;20507;-68
2021/12/26 07:16:18;;;;;;;31.05;13.10;;;-5.90;99.90;;;;;;5097044;28;20097;-67
2021/12/26 07:18:43;;;;;;;37.17;18.42;;;-5.80;99.90;;;;;;5096324;28;20047;-66
2021/12/26 07:21:09;;;;;;;13.43;7.45;;;-5.80;99.90;;;;;;5097732;28;20443;-67
2021/12/26 07:23:35;;;;;;;31.50;19.17;;;;;;;;;;5097057;28;20031;-67
2021/12/26 07:26:01;;;;;;;15.10;7.35;;;-5.80;99.90;;;;;;5080423;28;20043;-67
2021/12/26 07:28:26;;;;;;;10.35;6.05;;;-5.70;99.90;;;;;;5097764;28;20369;-68
2021/12/26 07:30:52;;;;;;;7.43;4.15;;;-5.40;99.90;;;;;;5080256;28;20454;-68
2021/12/26 07:33:18;;;;;;;6.10;3.30;;;-5.70;99.90;;;;;;5079286;28;20071;-68
2021/12/26 07:35:43;;;;;;;6.28;2.78;;;-5.60;99.90;;;;;;5097967;28;20062;-69
2021/12/26 07:38:09;;;;;;;8.43;4.00;;;-5.80;99.90;;;;;;5096046;28;20047;-68
2021/12/26 07:40:35;;;;;;;5.75;2.97;;;-5.60;99.90;;;;;;5097176;28;20093;-68
2021/12/26 07:43:00;;;;;;;8.88;5.85;;;-5.50;99.90;;;;;;5097010;28;20104;-68
2021/12/26 07:45:26;;;;;;;6.30;3.42;;;-5.70;99.90;;;;;;5096875;28;20038;-68
2021/12/26 07:47:52;;;;;;;7.93;5.05;;;;;;;;;;5079510;28;20028;-68
2021/12/26 07:50:18;;;;;;;6.97;3.50;;;-5.60;99.90;;;;;;5079575;28;20036;-67
2021/12/26 07:52:45;;;;;;;7.35;3.70;;;-5.80;99.90;;;;;;5096893;28;20042;-68
2021/12/26 07:55:13;;;;;;;6.78;3.67;;;-5.50;99.90;;;;;;5080631;28;20043;-68
2021/12/26 07:57:40;;;;;;;6.20;3.63;;;-5.80;99.90;;;;;;5096811;28;20123;-67
2021/12/26 08:00:07;;;;;;;9.27;5.35;;;-4.80;99.90;;;;;;5078785;28;20044;-68
2021/12/26 08:02:32;;;;;;;8.32;4.15;;;-5.80;99.90;;;;;;5096468;28;20488;-68
2021/12/26 08:05:39;;;;;;;7.13;2.80;;;-2.50;99.90;;;;;;5114900;28;20048;-67
2021/12/26 08:08:05;;;;;;;8.18;3.78;;;;;;;;;;5095500;28;20031;-69
2021/12/26 08:10:30;;;;;;;9.00;3.58;;;-5.40;99.90;;;;;;5094642;28;20047;-67
2021/12/26 08:12:57;;;;;;;8.80;3.58;;;;;;;;;;5095484;28;20054;-67
2021/12/26 08:15:23;;;;;;;7.30;3.58;;;;;;;;;;5096946;28;20047;-67
2021/12/26 08:17:48;;;;;;;53.70;25.00;;;-5.70;99.90;;;;;;5096271;28;20131;-67
2021/12/26 08:20:14;;;;;;;23.52;10.43;;;-5.40;99.90;;;;;;5094526;28;20127;-66
2021/12/26 08:22:40;;;;;;;12.07;6.80;;;-5.40;99.90;;;;;;5097048;28;20317;-66
2021/12/26 08:25:06;;;;;;;8.23;3.15;;;-5.30;99.90;;;;;;5095120;28;20035;-68
2021/12/26 08:27:33;;;;;;;8.02;4.38;;;;;;;;;;5095550;28;20073;-69
2021/12/26 08:29:59;;;;;;;7.00;4.13;;;-4.30;99.90;;;;;;5079422;28;20192;-68
2021/12/26 08:32:26;;;;;;;7.03;3.45;;;;;;;;;;5093207;28;20043;-67
2021/12/26 08:34:52;;;;;;;7.72;4.20;;;-5.10;99.90;;;;;;5079159;28;20035;-67
2021/12/26 08:37:18;;;;;;;7.53;3.85;;;;;;;;;;5096245;28;20058;-68
2021/12/26 08:39:45;;;;;;;7.75;4.15;;;-5.10;99.90;;;;;;5078977;28;20040;-68
2021/12/26 08:42:12;;;;;;;6.30;2.92;;;-4.90;99.90;;;;;;5078883;28;20106;-68
2021/12/26 08:44:38;;;;;;;6.63;3.20;;;;;;;;;;5096344;28;20043;-68
2021/12/26 08:47:05;;;;;;;6.82;3.10;;;-4.90;99.90;;;;;;5081559;28;20046;-68
2021/12/26 08:49:31;;;;;;;6.80;2.53;;;;;;;;;;5095810;28;20051;-68
2021/12/26 08:51:57;;;;;;;6.75;4.65;;;;;;;;;;5095435;28;20130;-68
2021/12/26 08:54:26;;;;;;;5.80;2.90;;;-4.70;99.90;;;;;;5078832;28;20075;-67
2021/12/26 08:56:53;;;;;;;7.95;4.00;;;;;;;;;;5094810;28;20051;-67
2021/12/26 08:59:19;;;;;;;6.00;3.17;;;;;;;;;;5070927;28;20075;-66
2021/12/26 09:01:46;;;;;;;7.30;3.38;;;;;;;;;;5080981;28;20048;-67
2021/12/26 09:04:13;;;;;;;7.35;4.03;;;;;;;;;;5070480;28;20089;-68
2021/12/26 09:06:44;;;;;;;7.72;3.15;;;;;;;;;;5074412;28;20488;-67
2021/12/26 09:09:11;;;;;;;6.00;2.47;;;;;;;;;;5074564;28;20556;-69
2021/12/26 09:11:37;;;;;;;13.00;6.82;;;;;;;;;;5092962;28;20048;-67
2021/12/26 09:14:03;;;;;;;10.15;5.25;;;;;;;;;;5092387;28;20111;-68
2021/12/26 09:16:33;;;;;;;7.45;3.97;;;;;;;;;;5075461;28;20118;-66
2021/12/26 09:19:06;;;;;;;10.10;4.55;;;;;;;;;;5092713;28;20127;-67
2021/12/26 09:21:32;;;;;;;8.40;4.00;;;-4.40;99.90;;;;;;5092098;28;20442;-69
2021/12/26 09:23:57;;;;;;;9.68;4.72;;;-4.20;99.90;;;;;;5092434;28;20043;-67
2021/12/26 09:26:23;;;;;;;9.43;5.18;;;-3.90;99.90;;;;;;5093000;28;20052;-70
2021/12/26 09:28:50;;;;;;;7.97;4.10;;;-4.10;99.90;;;;;;5092738;28;20365;-72
2021/12/26 09:31:16;;;;;;;9.02;5.40;;;-4.00;99.90;;;;;;5075432;28;20052;-69
2021/12/26 09:33:42;;;;;;;10.50;5.28;;;-3.70;99.90;;;;;;5076497;28;20081;-67
2021/12/26 09:36:08;;;;;;;9.25;4.60;;;;;;;;;;5092311;28;20073;-71
2021/12/26 09:38:34;;;;;;;11.38;4.82;;;-3.90;99.90;;;;;;5089487;28;20499;-66
2021/12/26 09:41:00;;;;;;;12.40;5.00;;;;;;;;;;5091690;28;20047;-70
2021/12/26 09:43:26;;;;;;;11.57;6.25;;;-3.80;99.90;;;;;;5091655;28;20044;-71
2021/12/26 09:45:52;;;;;;;7.30;3.10;;;-3.70;99.90;;;;;;5091346;28;20070;-71
2021/12/26 09:48:18;;;;;;;8.13;3.50;;;-3.70;99.90;;;;;;5092095;28;20074;-71
2021/12/26 09:50:44;;;;;;;7.10;3.20;;;;;;;;;;5090437;28;20426;-70
2021/12/26 09:53:10;;;;;;;12.45;5.32;;;-3.70;99.90;;;;;;5091548;28;20047;-70
2021/12/26 09:55:36;;;;;;;9.18;4.50;;;;;;;;;;5074664;28;20074;-70
2021/12/26 09:58:02;;;;;;;12.07;6.43;;;;;;;;;;5091868;28;20082;-69
2021/12/26 10:00:36;;;;;;;10.45;4.25;;;-3.30;99.90;;;;;;5091226;28;20086;-69
2021/12/26 10:03:07;;;;;;;11.45;5.03;;;-3.40;99.90;;;;;;5091656;28;20418;-69
2021/12/26 10:06:10;;;;;;;10.95;5.63;;;-3.30;99.90;;;;;;5062930;28;20119;-69
2021/12/26 10:08:50;;;;;;;12.82;5.63;;;-3.50;99.90;;;;;;5091651;28;20036;-69
2021/12/26 10:11:18;;;;;;;21.70;11.90;;;-3.30;99.90;;;;;;5087098;28;20057;-70
2021/12/26 10:13:50;;;;;;;13.30;5.53;;;-3.40;99.90;;;;;;5091030;28;20047;-70
2021/12/26 10:16:18;;;;;;;35.40;17.23;;;-3.20;99.90;;;;;;5090568;28;20039;-69
2021/12/26 10:18:44;;;;;;;12.68;6.80;;;;;;;;;;5074681;28;20055;-69
2021/12/26 10:21:37;;;;;;;21.05;8.52;;;-3.10;99.90;;;;;;5090574;28;20044;-69
2021/12/26 10:24:10;;;;;;;28.25;12.80;;;-3.00;99.90;;;;;;5091699;28;20430;-70
2021/12/26 10:26:39;;;;;;;32.03;15.40;;;-2.80;99.90;;;;;;5083336;28;20488;-69
2021/12/26 10:29:09;;;;;;;15.25;7.18;;;-3.10;99.90;;;;;;5090859;28;20038;-70
2021/12/26 10:31:36;;;;;;;30.77;13.45;;;-2.60;99.90;;;;;;5091068;28;20063;-69
2021/12/26 10:34:02;;;;;;;53.40;23.63;;;-2.80;99.90;;;;;;5073099;28;20092;-71
2021/12/26 10:36:28;;;;;;;30.98;14.25;;;;;;;;;;5091783;28;20694;-70
2021/12/26 10:39:09;;;;;;;10.70;4.63;;;-2.50;99.90;;;;;;5089558;28;20055;-71
2021/12/26 10:41:49;;;;;;;14.88;7.82;;;-2.70;99.90;;;;;;5074346;28;20043;-70
2021/12/26 10:44:26;;;;;;;18.42;9.77;;;-2.60;99.90;;;;;;5091408;28;20048;-70
2021/12/26 10:46:56;;;;;;;13.88;6.68;;;-2.80;99.90;;;;;;5074296;28;20039;-70
2021/12/26 10:49:23;;;;;;;9.35;4.70;;;-2.50;99.90;;;;;;5090805;28;20043;-70
2021/12/26 10:51:48;;;;;;;10.52;5.18;;;-2.60;99.90;;;;;;5075152;28;20086;-70
2021/12/26 10:54:16;;;;;;;7.53;3.40;;;-2.40;99.90;;;;;;5090361;28;20031;-70
2021/12/26 10:57:00;;;;;;;8.20;4.05;;;-2.20;99.90;;;;;;5091566;28;20074;-70
2021/12/26 10:59:25;;;;;;;23.83;11.23;;;-2.20;99.90;;;;;;5090398;28;20376;-70
2021/12/26 11:01:54;;;;;;;11.60;5.57;;;-2.30;99.90;;;;;;5090308;28;20050;-69
2021/12/26 11:04:19;;;;;;;9.27;4.82;;;-2.20;99.90;;;;;;5090592;28;20796;-72
2021/12/26 11:07:11;;;;;;;10.73;5.78;;;-2.00;99.90;;;;;;5091060;28;20054;-71
2021/12/26 11:09:37;;;;;;;7.28;3.42;;;-2.10;99.90;;;;;;5074835;28;20058;-77
2021/12/26 11:12:08;;;;;;;18.20;9.05;;;-2.10;99.90;;;;;;5092002;28;20409;-67
2021/12/26 11:14:58;;;;;;;13.63;6.72;;;-2.00;99.90;;;;;;5090501;28;20086;-70
2021/12/26 11:17:42;;;;;;;7.75;4.13;;;-2.00;99.90;;;;;;5090290;28;20048;-70
2021/12/26 11:20:08;;;;;;;13.88;5.85;;;-1.80;99.90;;;;;;5074565;28;20438;-69
2021/12/26 11:22:34;;;;;;;21.23;9.45;;;-1.90;99.90;;;;;;5091032;28;20047;-69
2021/12/26 11:25:00;;;;;;;18.52;8.70;;;-1.70;99.90;;;;;;5088082;28;20039;-72
2021/12/26 11:27:26;;;;;;;31.00;12.48;;;-1.70;99.90;;;;;;5089021;28;20436;-72
2021/12/26 11:29:53;;;;;;;46.13;18.15;;;-1.70;99.90;;;;;;5086981;28;20084;-71
2021/12/26 11:32:24;;;;;;;27.55;13.50;;;-1.50;99.90;;;;;;5088053;28;20113;-70
2021/12/26 11:34:50;;;;;;;21.40;10.45;;;-1.60;99.90;;;;;;5087569;28;20039;-70
2021/12/26 11:37:17;;;;;;;15.68;7.45;;;-1.50;99.90;;;;;;5087314;28;20569;-71
2021/12/26 11:39:45;;;;;;;10.20;5.20;;;-1.50;99.90;;;;;;5086456;28;20051;-71
2021/12/26 11:42:31;;;;;;;10.68;4.20;;;-1.50;99.90;;;;;;5087648;28;20044;-71
2021/12/26 11:45:22;;;;;;;10.32;4.90;;;-1.40;99.90;;;;;;5088491;28;20052;-72
2021/12/26 11:48:25;;;;;;;9.65;4.72;;;-1.30;99.90;;;;;;5085159;28;20409;-72
2021/12/26 11:51:19;;;;;;;8.90;4.63;;;-1.30;99.90;;;;;;5058781;28;20099;-73
2021/12/26 11:54:14;;;;;;;7.90;4.45;;;-1.30;99.90;;;;;;5074369;28;20040;-72
2021/12/26 11:56:49;;;;;;;20.97;10.90;;;-1.10;99.90;;;;;;5091668;28;20093;-73
2021/12/26 11:59:38;;;;;;;13.00;4.77;;;-1.10;99.90;;;;;;5074472;28;20376;-72
2021/12/26 12:02:04;;;;;;;13.13;5.70;;;-1.10;99.90;;;;;;5071796;28;20438;-72
2021/12/26 12:04:30;;;;;;;15.95;6.75;;;;;;;;;;5089112;28;20040;-77
2021/12/26 12:07:04;;;;;;;13.80;5.90;;;-1.30;99.90;;;;;;5069203;28;20793;-71
2021/12/26 12:09:29;;;;;;;11.85;6.75;;;-0.10;99.90;;;;;;5088137;28;20456;-73
2021/12/26 12:11:59;;;;;;;10.98;6.15;;;-0.90;99.90;;;;;;5074207;28;20131;-73
2021/12/26 12:14:43;;;;;;;10.07;4.30;;;-0.80;99.90;;;;;;5090250;28;20535;-73
2021/12/26 12:17:15;;;;;;;9.20;4.20;;;-0.60;99.90;;;;;;5073280;28;20566;-73
2021/12/26 12:20:06;;;;;;;6.13;3.65;;;-0.70;99.90;;;;;;5090182;28;20055;-73
2021/12/26 12:22:32;;;;;;;11.48;4.55;;;;;;;;;;5089263;28;20035;-73
2021/12/26 12:25:17;;;;;;;39.78;17.38;;;-0.50;99.90;;;;;;5088636;28;20421;-73
2021/12/26 12:28:16;;;;;;;32.00;11.48;;;-0.80;99.90;;;;;;5089627;28;20071;-73
2021/12/26 12:30:49;;;;;;;38.67;14.85;;;-0.80;99.90;;;;;;5067504;28;20462;-73
2021/12/26 12:33:14;;;;;;;33.00;14.38;;;-0.60;99.90;;;;;;5082186;28;20044;-72
2021/12/26 12:35:47;;;;;;;20.02;10.05;;;-0.60;99.90;;;;;;5080230;28;20564;-72
2021/12/26 12:38:35;;;;;;;16.27;9.15;;;-0.70;99.90;;;;;;5067870;28;20456;-72
2021/12/26 12:41:02;;;;;;;7.68;3.30;;;-0.50;99.90;;;;;;5077205;28;20083;-73
2021/12/26 12:43:29;;;;;;;9.25;5.00;;;-0.50;99.90;;;;;;5069849;28;20056;-73
2021/12/26 12:46:00;;;;;;;6.32;3.25;;;;;;;;;;5069976;28;20389;-73
2021/12/26 12:48:40;;;;;;;11.00;4.85;;;-0.50;99.90;;;;;;5053101;28;20147;-73
2021/12/26 12:51:15;;;;;;;7.90;3.90;;;-0.40;99.90;;;;;;5070256;28;20048;-73
2021/12/26 12:53:50;;;;;;;6.07;3.15;;;-0.50;99.90;;;;;;5068587;28;20048;-72
2021/12/26 12:56:33;;;;;;;8.82;4.95;;;-0.50;99.90;;;;;;5049063;28;20049;-73
2021/12/26 12:59:20;;;;;;;11.90;5.93;;;-0.40;99.90;;;;;;5068408;28;20044;-72
2021/12/26 13:01:57;;;;;;;6.55;3.25;;;-0.40;99.90;;;;;;5068987;28;20049;-72
2021/12/26 13:04:29;;;;;;;9.02;3.42;;;-0.60;99.90;;;;;;5069735;28;20091;-72
2021/12/26 13:06:59;;;;;;;15.43;6.70;;;-0.50;99.90;;;;;;5052683;28;20174;-73
2021/12/26 13:09:27;;;;;;;7.35;3.60;;;-0.40;99.90;;;;;;5052546;28;20094;-72
2021/12/26 13:11:58;;;;;;;10.63;4.80;;;-0.40;99.90;;;;;;5069373;28;20481;-72
2021/12/26 13:14:42;;;;;;;18.08;7.75;;;-0.50;99.90;;;;;;5052637;28;20562;-72
2021/12/26 13:17:15;;;;;;;7.43;3.65;;;-0.40;99.90;;;;;;5036701;28;20083;-72